Time;durP1;ratioP1;P1;durP2;ratioP2;P2;SDS_P1;SDS_P2;PMS_P1;PMS_P2;Temp;Humidity;BMP_temperature;BMP_pressure;BME280_temperature;BME280_humidity;BME280_pressure;Samples;Min_cycle;Max_cycle;Signal;HPM_P1;HPM_P2
2021/10/18 00:01:43;;;;;;;0.77;0.45;;;19.60;65.80;;;;;;5104882;28;20024;-36
2021/10/18 00:04:09;;;;;;;0.30;0.30;;;19.50;65.80;;;;;;5105623;28;20054;-37
2021/10/18 00:06:36;;;;;;;0.90;0.50;;;19.60;65.90;;;;;;5105578;28;20150;-36
2021/10/18 00:09:02;;;;;;;0.30;0.30;;;19.50;65.80;;;;;;5105682;28;20040;-36
2021/10/18 00:11:28;;;;;;;0.65;0.40;;;19.50;65.70;;;;;;5105281;28;20052;-36
2021/10/18 00:13:55;;;;;;;0.32;0.30;;;19.50;65.80;;;;;;5105451;28;20043;-36
2021/10/18 00:16:21;;;;;;;0.40;0.40;;;19.50;65.70;;;;;;5105395;28;20016;-37
2021/10/18 00:18:47;;;;;;;0.93;0.40;;;19.50;65.80;;;;;;5104035;28;20064;-38
2021/10/18 00:21:15;;;;;;;0.60;0.30;;;19.50;65.70;;;;;;5105139;28;20085;-36
2021/10/18 00:23:41;;;;;;;0.88;0.40;;;19.50;65.80;;;;;;5105438;28;20104;-36
2021/10/18 00:26:07;;;;;;;0.40;0.40;;;19.50;65.80;;;;;;5104990;28;20038;-36
2021/10/18 00:28:33;;;;;;;0.43;0.30;;;19.50;65.80;;;;;;5105019;28;20067;-37
2021/10/18 00:30:59;;;;;;;0.80;0.50;;;19.50;65.80;;;;;;5103367;28;20020;-36
2021/10/18 00:33:26;;;;;;;2.45;0.52;;;19.50;65.80;;;;;;5087184;28;20024;-36
2021/10/18 00:35:52;;;;;;;0.73;0.43;;;19.40;65.70;;;;;;5084742;28;20021;-36
2021/10/18 00:38:18;;;;;;;0.60;0.40;;;19.40;65.70;;;;;;5084829;28;20028;-36
2021/10/18 00:40:44;;;;;;;0.38;0.38;;;19.40;65.80;;;;;;5084710;28;20307;-36
2021/10/18 00:43:10;;;;;;;0.70;0.50;;;19.40;65.90;;;;;;5084646;28;20058;-36
2021/10/18 00:45:36;;;;;;;0.50;0.50;;;19.40;65.80;;;;;;5084492;28;20024;-36
2021/10/18 00:48:03;;;;;;;0.98;0.50;;;19.40;65.90;;;;;;5084518;28;20041;-36
2021/10/18 00:50:29;;;;;;;0.73;0.50;;;19.30;65.90;;;;;;5082909;28;20028;-36
2021/10/18 00:52:55;;;;;;;0.63;0.50;;;19.30;65.90;;;;;;5084528;28;20074;-36
2021/10/18 00:55:21;;;;;;;0.57;0.50;;;19.30;65.90;;;;;;5084404;28;20028;-36
2021/10/18 00:57:47;;;;;;;1.23;0.57;;;19.30;66.00;;;;;;5085191;28;20035;-36
2021/10/18 01:00:14;;;;;;;0.50;0.32;;;19.30;66.10;;;;;;5103277;28;20024;-36
2021/10/18 01:02:40;;;;;;;0.63;0.60;;;19.30;66.10;;;;;;5104009;28;20087;-36
2021/10/18 01:05:07;;;;;;;0.32;0.32;;;19.30;66.10;;;;;;5104427;28;20024;-36
2021/10/18 01:07:33;;;;;;;1.30;0.60;;;19.20;66.10;;;;;;5104333;28;20089;-36
2021/10/18 01:10:00;;;;;;;0.50;0.50;;;19.20;66.10;;;;;;5104533;28;20102;-36
2021/10/18 01:12:26;;;;;;;0.82;0.52;;;19.20;66.20;;;;;;5103753;28;20054;-36
2021/10/18 01:14:52;;;;;;;0.63;0.50;;;19.20;66.20;;;;;;5104350;28;20047;-36
2021/10/18 01:17:18;;;;;;;1.65;0.50;;;19.20;66.30;;;;;;5102433;28;20049;-36
2021/10/18 01:19:45;;;;;;;0.70;0.47;;;19.20;66.30;;;;;;5104287;28;20032;-36
2021/10/18 01:22:11;;;;;;;1.55;0.57;;;19.20;66.20;;;;;;5104060;28;20024;-36
2021/10/18 01:24:37;;;;;;;1.35;0.40;;;19.10;66.30;;;;;;5103937;28;20047;-36
2021/10/18 01:27:04;;;;;;;0.55;0.43;;;19.10;66.30;;;;;;5103930;28;20421;-36
2021/10/18 01:29:36;;;;;;;1.00;0.50;;;19.10;66.40;;;;;;5104173;28;20024;-36
2021/10/18 01:32:03;;;;;;;1.23;0.80;;;19.10;66.40;;;;;;5099133;28;20476;-37
2021/10/18 01:34:29;;;;;;;0.60;0.60;;;19.10;66.50;;;;;;5103938;28;20661;-36
2021/10/18 01:36:56;;;;;;;1.13;0.50;;;19.10;66.50;;;;;;5103864;28;20028;-36
2021/10/18 01:39:22;;;;;;;0.73;0.52;;;19.10;66.50;;;;;;5103267;28;20116;-36
2021/10/18 01:41:48;;;;;;;1.13;0.50;;;19.00;66.50;;;;;;5103138;28;20034;-36
2021/10/18 01:44:14;;;;;;;0.60;0.50;;;19.00;66.60;;;;;;5103719;28;20026;-36
2021/10/18 01:46:41;;;;;;;0.50;0.50;;;19.00;67.40;;;;;;5103449;28;20021;-36
2021/10/18 01:49:08;;;;;;;0.50;0.40;;;19.00;66.70;;;;;;5103589;28;20047;-36
2021/10/18 01:51:34;;;;;;;0.77;0.63;;;19.00;66.80;;;;;;5103394;28;20029;-36
2021/10/18 01:54:00;;;;;;;1.17;0.55;;;18.90;66.70;;;;;;5103542;28;20271;-36
2021/10/18 01:56:26;;;;;;;1.45;0.50;;;18.90;66.80;;;;;;5103388;28;20024;-36
2021/10/18 01:58:53;;;;;;;0.70;0.70;;;18.90;66.80;;;;;;5084389;28;20052;-36
2021/10/18 02:01:19;;;;;;;0.68;0.55;;;18.90;66.90;;;;;;5071385;28;20062;-36
2021/10/18 02:03:45;;;;;;;0.80;0.50;;;18.90;66.90;;;;;;5083104;28;20023;-36
2021/10/18 02:06:11;;;;;;;1.20;0.70;;;18.90;66.90;;;;;;5082889;28;20860;-36
2021/10/18 02:08:38;;;;;;;1.37;0.60;;;18.90;67.00;;;;;;5082901;28;20043;-36
2021/10/18 02:11:05;;;;;;;0.77;0.65;;;18.80;67.00;;;;;;5083103;28;20031;-36
2021/10/18 02:13:31;;;;;;;0.80;0.60;;;18.80;67.00;;;;;;5081416;28;20055;-36
2021/10/18 02:15:57;;;;;;;0.70;0.50;;;18.80;67.10;;;;;;5082825;28;20051;-36
2021/10/18 02:18:23;;;;;;;0.80;0.63;;;18.80;67.20;;;;;;5082832;28;20024;-36
2021/10/18 02:20:49;;;;;;;1.75;0.60;;;18.80;67.20;;;;;;5083033;28;20063;-36
2021/10/18 02:23:16;;;;;;;0.70;0.60;;;18.80;67.30;;;;;;5082603;28;20021;-36
2021/10/18 02:25:42;;;;;;;0.80;0.60;;;18.80;67.30;;;;;;5082881;28;20048;-36
2021/10/18 02:28:08;;;;;;;0.68;0.60;;;18.80;67.30;;;;;;5082680;28;20036;-36
2021/10/18 02:30:34;;;;;;;1.15;0.60;;;18.70;67.40;;;;;;5082890;28;20044;-36
2021/10/18 02:33:00;;;;;;;0.93;0.70;;;18.70;67.40;;;;;;5082429;28;20039;-36
2021/10/18 02:35:26;;;;;;;0.88;0.60;;;18.70;67.50;;;;;;5102348;28;20037;-36
2021/10/18 02:37:52;;;;;;;0.98;0.55;;;18.70;67.50;;;;;;5102876;28;20058;-36
2021/10/18 02:40:19;;;;;;;1.00;0.60;;;18.70;67.50;;;;;;5097075;28;20496;-36
2021/10/18 02:42:45;;;;;;;0.52;0.50;;;18.70;67.60;;;;;;5082611;28;20024;-36
2021/10/18 02:45:11;;;;;;;1.15;0.80;;;18.70;67.60;;;;;;5082831;28;20124;-36
2021/10/18 02:47:37;;;;;;;1.05;0.57;;;18.70;67.60;;;;;;5082730;28;20036;-36
2021/10/18 02:50:04;;;;;;;0.90;0.68;;;18.60;67.60;;;;;;5082773;28;20032;-36
2021/10/18 02:52:30;;;;;;;1.25;0.70;;;18.60;67.70;;;;;;5100728;28;20016;-36
2021/10/18 02:54:56;;;;;;;1.05;0.57;;;18.60;67.70;;;;;;5105944;28;20131;-36
2021/10/18 02:57:22;;;;;;;1.02;0.50;;;18.60;67.80;;;;;;5106852;28;20031;-36
2021/10/18 02:59:48;;;;;;;0.95;0.73;;;18.60;67.80;;;;;;5107112;28;20028;-36
2021/10/18 03:02:17;;;;;;;0.70;0.40;;;18.60;67.90;;;;;;5105084;28;20028;-36
2021/10/18 03:04:45;;;;;;;0.98;0.70;;;18.60;67.90;;;;;;5106947;28;20036;-36
2021/10/18 03:07:11;;;;;;;0.95;0.73;;;18.60;68.00;;;;;;5106773;28;20144;-36
2021/10/18 03:09:37;;;;;;;0.80;0.57;;;18.50;68.00;;;;;;5097828;28;20021;-36
2021/10/18 03:12:04;;;;;;;1.13;0.65;;;18.50;68.00;;;;;;5086788;28;20029;-36
2021/10/18 03:14:30;;;;;;;1.08;0.75;;;18.50;68.10;;;;;;5086347;28;20111;-36
2021/10/18 03:16:56;;;;;;;0.60;0.55;;;18.50;68.10;;;;;;5086334;28;20111;-36
2021/10/18 03:19:22;;;;;;;1.17;0.57;;;18.50;68.10;;;;;;5086560;28;20093;-36
2021/10/18 03:21:48;;;;;;;1.42;0.90;;;18.40;68.10;;;;;;5086326;28;20029;-36
2021/10/18 03:24:14;;;;;;;0.57;0.57;;;18.40;68.10;;;;;;5086170;28;20051;-37
2021/10/18 03:26:41;;;;;;;0.90;0.68;;;18.40;68.20;;;;;;5085991;28;20032;-36
2021/10/18 03:29:07;;;;;;;0.70;0.55;;;18.40;68.10;;;;;;5086213;28;20100;-36
2021/10/18 03:31:33;;;;;;;2.75;0.85;;;18.40;68.30;;;;;;5098225;28;20024;-36
2021/10/18 03:33:59;;;;;;;0.63;0.47;;;18.40;68.30;;;;;;5097767;28;20024;-36
2021/10/18 03:36:25;;;;;;;1.10;0.70;;;18.40;68.40;;;;;;5086117;28;20035;-36
2021/10/18 03:38:51;;;;;;;0.98;0.70;;;18.40;68.40;;;;;;5086184;28;20027;-36
2021/10/18 03:41:17;;;;;;;1.90;0.80;;;18.30;68.30;;;;;;5086006;28;20032;-36
2021/10/18 03:43:44;;;;;;;1.33;0.73;;;18.30;68.40;;;;;;5085882;28;20024;-36
2021/10/18 03:46:10;;;;;;;1.33;0.88;;;18.30;68.50;;;;;;5086041;28;20058;-36
2021/10/18 03:48:36;;;;;;;0.85;0.73;;;18.30;68.50;;;;;;5085797;28;20047;-36
2021/10/18 03:51:02;;;;;;;1.60;0.70;;;18.30;68.50;;;;;;5085989;28;20511;-36
2021/10/18 03:53:28;;;;;;;1.10;0.73;;;18.30;68.60;;;;;;5085666;28;20029;-36
2021/10/18 03:55:54;;;;;;;0.68;0.60;;;18.30;68.60;;;;;;5085609;28;20032;-36
2021/10/18 03:58:20;;;;;;;2.05;0.60;;;18.20;68.60;;;;;;5085776;28;20028;-36
2021/10/18 04:00:46;;;;;;;0.90;0.60;;;18.20;68.60;;;;;;5091149;28;20028;-36
2021/10/18 04:03:13;;;;;;;1.98;0.60;;;18.20;68.70;;;;;;5105931;28;20205;-36
2021/10/18 04:05:39;;;;;;;2.00;0.65;;;18.20;68.70;;;;;;5105539;28;20092;-38
2021/10/18 04:08:05;;;;;;;1.17;0.73;;;18.20;68.70;;;;;;5105854;28;20117;-36
2021/10/18 04:10:32;;;;;;;0.65;0.63;;;18.20;68.80;;;;;;5106004;28;20050;-36
2021/10/18 04:13:00;;;;;;;0.95;0.70;;;18.10;68.80;;;;;;5104222;28;20058;-36
2021/10/18 04:15:27;;;;;;;1.13;0.80;;;18.10;68.80;;;;;;5105808;28;20043;-36
2021/10/18 04:17:53;;;;;;;0.98;0.73;;;18.10;68.90;;;;;;5087558;28;20036;-37
2021/10/18 04:20:19;;;;;;;1.02;0.75;;;18.10;68.90;;;;;;5104313;28;20035;-36
2021/10/18 04:22:48;;;;;;;0.90;0.70;;;18.10;69.00;;;;;;5105829;28;20035;-36
2021/10/18 04:25:15;;;;;;;0.80;0.70;;;18.10;69.00;;;;;;5105313;28;20104;-36
2021/10/18 04:27:41;;;;;;;1.38;0.60;;;18.00;69.00;;;;;;5105539;28;20047;-36
2021/10/18 04:30:08;;;;;;;0.60;0.60;;;18.00;69.10;;;;;;5104079;28;20059;-36
2021/10/18 04:32:34;;;;;;;0.85;0.77;;;18.00;69.10;;;;;;5105261;28;20076;-36
2021/10/18 04:35:00;;;;;;;1.02;0.70;;;18.00;69.10;;;;;;5089307;28;20059;-36
2021/10/18 04:37:26;;;;;;;0.82;0.65;;;18.00;69.20;;;;;;5085252;28;20024;-36
2021/10/18 04:39:52;;;;;;;1.38;0.70;;;18.00;69.20;;;;;;5087625;28;20048;-36
2021/10/18 04:42:18;;;;;;;1.15;0.77;;;18.00;69.30;;;;;;5085089;28;20050;-36
2021/10/18 04:44:45;;;;;;;1.00;0.80;;;18.00;69.30;;;;;;5084828;28;20028;-36
2021/10/18 04:47:11;;;;;;;0.85;0.70;;;17.90;69.20;;;;;;5084635;28;20041;-36
2021/10/18 04:49:37;;;;;;;0.93;0.68;;;17.90;69.30;;;;;;5084811;28;20048;-36
2021/10/18 04:52:04;;;;;;;0.80;0.80;;;17.90;69.30;;;;;;5084799;28;20040;-36
2021/10/18 04:54:30;;;;;;;1.52;0.82;;;17.90;69.30;;;;;;5084505;28;20527;-36
2021/10/18 04:56:56;;;;;;;0.70;0.60;;;17.90;69.40;;;;;;5084620;28;20036;-36
2021/10/18 04:59:22;;;;;;;1.08;0.70;;;17.90;69.50;;;;;;5095154;28;20024;-36
2021/10/18 05:01:48;;;;;;;1.23;0.80;;;17.80;69.50;;;;;;5104922;28;20024;-36
2021/10/18 05:04:14;;;;;;;1.50;0.70;;;17.80;69.50;;;;;;5104686;28;20035;-36
2021/10/18 05:06:40;;;;;;;1.10;0.80;;;17.80;69.60;;;;;;5104183;28;20048;-36
2021/10/18 05:09:07;;;;;;;1.10;0.70;;;17.80;69.60;;;;;;5104803;28;20032;-36
2021/10/18 05:11:33;;;;;;;0.80;0.52;;;17.80;69.60;;;;;;5104765;28;20058;-36
2021/10/18 05:13:59;;;;;;;0.63;0.57;;;17.80;69.60;;;;;;5104354;28;20038;-36
2021/10/18 05:16:25;;;;;;;0.98;0.63;;;17.80;69.70;;;;;;5102680;28;20012;-37
2021/10/18 05:18:51;;;;;;;1.08;0.60;;;17.80;69.70;;;;;;5104415;28;20028;-36
2021/10/18 05:21:17;;;;;;;0.93;0.75;;;17.70;69.70;;;;;;5103069;28;20024;-36
2021/10/18 05:23:44;;;;;;;0.90;0.70;;;17.70;69.80;;;;;;5104558;28;20039;-36
2021/10/18 05:26:10;;;;;;;1.13;0.80;;;17.70;69.80;;;;;;5104131;28;20082;-36
2021/10/18 05:28:36;;;;;;;0.82;0.60;;;17.70;69.80;;;;;;5103294;28;20039;-36
2021/10/18 05:31:02;;;;;;;1.35;0.80;;;17.70;69.80;;;;;;5104238;28;20029;-36
2021/10/18 05:33:28;;;;;;;0.95;0.55;;;17.70;69.80;;;;;;5104105;28;20115;-36
2021/10/18 05:35:54;;;;;;;1.13;0.70;;;17.70;69.90;;;;;;5104017;28;20032;-36
2021/10/18 05:38:21;;;;;;;0.90;0.65;;;17.70;69.90;;;;;;5104150;28;20107;-36
2021/10/18 05:40:48;;;;;;;0.70;0.60;;;17.60;69.90;;;;;;5102953;28;20028;-37
2021/10/18 05:43:14;;;;;;;;;;;17.60;70.00;;;;;;5104937;28;20054;-36
2021/10/18 05:45:41;;;;;;;1.30;0.57;;;17.60;70.00;;;;;;5103878;28;19911;-36
2021/10/18 05:48:08;;;;;;;0.85;0.70;;;17.60;70.00;;;;;;5103880;28;20803;-36
2021/10/18 05:50:40;;;;;;;1.05;0.75;;;17.60;70.00;;;;;;5102617;28;20032;-36
2021/10/18 05:53:07;;;;;;;1.48;0.73;;;17.60;70.00;;;;;;5104024;28;20055;-36
2021/10/18 05:55:33;;;;;;;1.00;0.70;;;17.50;70.00;;;;;;5103751;28;20035;-36
2021/10/18 05:58:05;;;;;;;0.95;0.65;;;17.50;70.10;;;;;;5103927;28;20030;-36
2021/10/18 06:00:39;;;;;;;1.40;0.80;;;17.50;70.10;;;;;;5102942;28;20009;-36
2021/10/18 06:03:05;;;;;;;1.27;0.65;;;17.50;70.20;;;;;;5083577;28;20102;-36
2021/10/18 06:05:31;;;;;;;3.75;0.75;;;17.50;70.20;;;;;;5082065;28;20070;-36
2021/10/18 06:08:05;;;;;;;1.27;0.70;;;17.50;70.20;;;;;;5083305;28;20052;-38
2021/10/18 06:10:31;;;;;;;0.80;0.68;;;17.50;70.30;;;;;;5083485;28;20029;-36
2021/10/18 06:12:57;;;;;;;1.40;0.70;;;17.50;70.30;;;;;;5083410;28;20061;-36
2021/10/18 06:15:23;;;;;;;1.00;0.60;;;17.40;70.30;;;;;;5083031;28;20632;-37
2021/10/18 06:17:50;;;;;;;1.35;0.80;;;17.40;70.30;;;;;;5083234;28;20092;-36
2021/10/18 06:20:16;;;;;;;1.08;0.70;;;17.40;70.30;;;;;;5083244;28;20017;-37
2021/10/18 06:22:42;;;;;;;1.00;0.70;;;17.40;70.40;;;;;;5094475;28;20028;-36
2021/10/18 06:25:09;;;;;;;0.70;0.70;;;17.40;70.40;;;;;;5102342;28;20089;-36
2021/10/18 06:27:35;;;;;;;0.63;0.52;;;17.40;70.40;;;;;;5103158;28;20040;-36
2021/10/18 06:30:01;;;;;;;0.70;0.60;;;17.40;70.50;;;;;;5102851;28;20039;-36
2021/10/18 06:32:27;;;;;;;1.25;0.80;;;17.40;70.50;;;;;;5103212;28;20038;-37
2021/10/18 06:34:54;;;;;;;1.02;0.70;;;17.30;70.60;;;;;;5103400;28;20067;-36
2021/10/18 06:37:20;;;;;;;1.15;0.77;;;17.30;70.60;;;;;;5103254;28;20028;-36
2021/10/18 06:39:46;;;;;;;0.57;0.55;;;17.30;70.50;;;;;;5103491;28;20016;-36
2021/10/18 06:42:12;;;;;;;0.80;0.60;;;17.30;70.70;;;;;;5103150;28;20549;-36
2021/10/18 06:44:40;;;;;;;0.88;0.65;;;17.30;70.60;;;;;;5103173;28;20135;-36
2021/10/18 06:47:06;;;;;;;1.00;0.63;;;17.30;70.70;;;;;;5102965;28;20540;-36
2021/10/18 06:49:32;;;;;;;0.75;0.60;;;17.30;70.70;;;;;;5090200;28;20779;-36
2021/10/18 06:51:59;;;;;;;0.90;0.65;;;17.20;70.70;;;;;;5088110;28;20035;-36
2021/10/18 06:54:34;;;;;;;0.60;0.52;;;17.20;70.70;;;;;;5102891;28;20043;-36
2021/10/18 06:57:00;;;;;;;1.30;0.70;;;17.20;70.80;;;;;;5102859;28;20425;-36
2021/10/18 06:59:26;;;;;;;0.52;0.50;;;17.20;70.80;;;;;;5103112;28;20020;-36
2021/10/18 07:01:53;;;;;;;2.13;0.65;;;17.20;70.80;;;;;;5103142;28;20020;-36
2021/10/18 07:04:21;;;;;;;1.02;0.60;;;17.20;70.90;;;;;;5102555;28;20028;-36
2021/10/18 07:06:47;;;;;;;0.85;0.70;;;17.20;70.90;;;;;;5102921;28;20073;-36
2021/10/18 07:09:13;;;;;;;1.27;0.50;;;17.20;70.90;;;;;;5103067;28;20032;-36
2021/10/18 07:11:39;;;;;;;1.00;0.63;;;17.10;70.90;;;;;;5103237;28;20499;-36
2021/10/18 07:14:06;;;;;;;0.98;0.70;;;17.10;70.80;;;;;;5102709;28;20028;-36
2021/10/18 07:16:32;;;;;;;0.90;0.70;;;17.10;70.80;;;;;;5102992;28;20126;-36
2021/10/18 07:18:58;;;;;;;1.83;0.68;;;17.10;70.90;;;;;;5103059;28;20020;-36
2021/10/18 07:21:24;;;;;;;0.70;0.50;;;17.10;71.00;;;;;;5103026;28;20031;-36
2021/10/18 07:23:55;;;;;;;0.70;0.50;;;17.10;71.00;;;;;;5102792;28;20051;-36
2021/10/18 07:26:22;;;;;;;1.23;0.70;;;17.10;71.10;;;;;;5102760;28;20020;-36
2021/10/18 07:28:48;;;;;;;0.45;0.40;;;17.10;71.10;;;;;;5102941;28;20035;-36
2021/10/18 07:31:14;;;;;;;1.00;0.52;;;17.10;71.10;;;;;;5102833;28;20028;-36
2021/10/18 07:33:40;;;;;;;0.85;0.68;;;17.10;71.20;;;;;;5102645;28;20032;-37
2021/10/18 07:36:09;;;;;;;0.98;0.80;;;17.00;71.10;;;;;;5102940;28;20024;-37
2021/10/18 07:38:38;;;;;;;0.98;0.68;;;17.00;71.10;;;;;;5102927;28;20056;-36
2021/10/18 07:41:07;;;;;;;0.95;0.52;;;17.00;71.20;;;;;;5105731;28;20047;-36
2021/10/18 07:43:33;;;;;;;2.15;0.82;;;17.00;71.20;;;;;;5106437;28;20054;-36
2021/10/18 07:46:00;;;;;;;0.98;0.47;;;17.00;71.20;;;;;;5106390;28;20028;-36
2021/10/18 07:48:26;;;;;;;1.55;0.70;;;17.00;71.20;;;;;;5106551;28;20036;-36
2021/10/18 07:50:52;;;;;;;0.57;0.52;;;16.90;71.30;;;;;;5106430;28;20020;-36
2021/10/18 07:53:18;;;;;;;0.80;0.60;;;16.90;71.30;;;;;;5089915;28;20035;-37
2021/10/18 07:55:44;;;;;;;1.40;0.60;;;16.90;71.40;;;;;;5085600;28;20087;-36
2021/10/18 07:58:10;;;;;;;0.98;0.80;;;16.90;71.40;;;;;;5085864;28;20016;-37
2021/10/18 08:00:36;;;;;;;0.85;0.50;;;16.90;71.40;;;;;;5086004;28;20428;-37
2021/10/18 08:03:03;;;;;;;1.10;0.70;;;16.90;71.40;;;;;;5085980;28;20048;-36
2021/10/18 08:05:29;;;;;;;0.60;0.60;;;16.90;71.50;;;;;;5085457;28;20103;-36
2021/10/18 08:07:55;;;;;;;0.70;0.60;;;16.90;71.50;;;;;;5085380;28;20044;-36
2021/10/18 08:10:25;;;;;;;0.80;0.60;;;16.80;71.50;;;;;;5085630;28;20369;-36
2021/10/18 08:12:57;;;;;;;1.45;0.77;;;16.80;72.20;;;;;;5085719;28;20032;-37
2021/10/18 08:15:24;;;;;;;0.70;0.60;;;16.80;71.50;;;;;;5085359;28;20024;-36
2021/10/18 08:17:51;;;;;;;1.08;0.70;;;16.80;71.50;;;;;;5085517;28;20039;-37
2021/10/18 08:20:17;;;;;;;1.43;0.80;;;16.80;71.60;;;;;;5084250;28;20037;-36
2021/10/18 08:22:43;;;;;;;0.70;0.60;;;16.80;71.50;;;;;;5096829;28;20375;-36
2021/10/18 08:25:10;;;;;;;1.45;0.60;;;16.80;71.60;;;;;;5104032;28;20028;-37
2021/10/18 08:27:36;;;;;;;0.95;0.57;;;16.80;71.60;;;;;;5105621;28;20083;-36
2021/10/18 08:30:04;;;;;;;0.90;0.57;;;16.80;71.70;;;;;;5105520;28;20032;-36
2021/10/18 08:32:30;;;;;;;1.15;0.68;;;16.70;71.60;;;;;;5104920;28;20012;-36
2021/10/18 08:34:56;;;;;;;1.40;0.73;;;16.70;71.60;;;;;;5105181;28;20088;-36
2021/10/18 08:38:14;;;;;;;0.80;0.57;;;16.70;71.70;;;;;;5105376;28;20024;-37
2021/10/18 08:40:10;;;;;;;0.85;0.60;;;16.70;71.70;;;;;;5105267;28;20051;-36
2021/10/18 08:45:31;;;;;;;0.70;0.40;;;16.60;71.70;;;;;;5079751;28;19910;-36
2021/10/18 08:47:57;;;;;;;0.40;0.40;;;16.70;71.80;;;;;;5083651;28;20025;-36
2021/10/18 08:50:24;;;;;;;1.10;0.60;;;16.70;71.90;;;;;;5067014;28;20325;-36
2021/10/18 08:52:50;;;;;;;0.67;0.60;;;16.70;71.80;;;;;;5083959;28;20084;-37
2021/10/18 08:55:16;;;;;;;0.98;0.65;;;16.60;71.80;;;;;;5083303;28;20079;-37
2021/10/18 08:57:42;;;;;;;1.40;0.70;;;16.60;71.90;;;;;;5084853;28;20017;-36
2021/10/18 09:00:34;;;;;;;0.80;0.70;;;16.60;71.90;;;;;;5084734;28;20029;-36
2021/10/18 09:03:00;;;;;;;0.60;0.57;;;16.60;71.90;;;;;;5098758;28;20046;-36
2021/10/18 09:05:26;;;;;;;0.88;0.73;;;16.60;71.90;;;;;;5104488;28;20058;-36
2021/10/18 09:07:52;;;;;;;0.77;0.50;;;16.60;72.00;;;;;;5104278;28;20058;-37
2021/10/18 09:10:18;;;;;;;0.85;0.55;;;16.60;72.00;;;;;;5104811;28;20039;-36
2021/10/18 09:12:47;;;;;;;0.82;0.52;;;16.50;72.00;;;;;;5104812;28;20023;-36
2021/10/18 09:15:20;;;;;;;1.17;0.60;;;16.50;72.70;;;;;;5104272;28;20036;-36
2021/10/18 09:17:50;;;;;;;1.00;0.65;;;16.50;72.00;;;;;;5104635;28;20028;-37
2021/10/18 09:20:23;;;;;;;0.55;0.50;;;16.50;72.10;;;;;;5103393;28;20708;-36
2021/10/18 09:22:50;;;;;;;0.73;0.60;;;16.50;72.10;;;;;;5104592;28;20024;-36
2021/10/18 09:25:36;;;;;;;0.65;0.50;;;16.50;72.20;;;;;;5104215;28;20103;-37
2021/10/18 09:28:13;;;;;;;1.30;0.68;;;16.50;72.20;;;;;;5104445;28;20569;-36
2021/10/18 09:30:44;;;;;;;0.93;0.65;;;16.40;72.10;;;;;;5104419;28;20017;-36
2021/10/18 09:33:38;;;;;;;1.40;0.60;;;16.40;72.10;;;;;;5104435;28;20030;-36
2021/10/18 09:36:06;;;;;;;0.60;0.52;;;16.40;72.10;;;;;;5103991;28;20111;-36
2021/10/18 09:38:32;;;;;;;0.60;0.50;;;16.40;72.20;;;;;;5104252;28;20057;-36
2021/10/18 09:40:59;;;;;;;1.05;0.50;;;16.40;72.20;;;;;;5102899;28;20028;-36
2021/10/18 09:43:34;;;;;;;;;;;16.40;72.30;;;;;;5104550;28;20039;-37
2021/10/18 10:53:46;;;;;;;1.10;0.45;;;16.10;72.80;;;;;;5068009;28;20059;-36
2021/10/18 10:56:59;;;;;;;0.63;0.52;;;16.00;72.70;;;;;;5082803;28;20020;-36
2021/10/18 10:59:28;;;;;;;0.80;0.50;;;16.00;72.80;;;;;;5084446;28;20107;-37
2021/10/18 11:01:55;;;;;;;0.80;0.47;;;16.00;72.80;;;;;;5087832;28;20028;-36
2021/10/18 11:04:30;;;;;;;0.70;0.65;;;16.00;72.80;;;;;;5102830;28;20119;-36
2021/10/18 11:07:01;;;;;;;0.60;0.55;;;16.00;72.90;;;;;;5102618;28;20040;-36
2021/10/18 11:09:37;;;;;;;0.80;0.50;;;16.00;72.80;;;;;;5103054;28;20032;-36
2021/10/18 11:12:04;;;;;;;0.55;0.40;;;16.00;72.90;;;;;;5102974;28;20028;-36
2021/10/18 11:14:31;;;;;;;0.55;0.45;;;15.90;72.80;;;;;;5103464;28;20028;-37
2021/10/18 11:16:57;;;;;;;0.60;0.40;;;15.90;72.90;;;;;;5106828;28;20731;-36
2021/10/18 11:19:23;;;;;;;0.90;0.70;;;15.90;72.90;;;;;;5107092;28;20053;-36
2021/10/18 11:21:57;;;;;;;0.73;0.60;;;15.90;73.00;;;;;;5107036;28;20059;-36
2021/10/18 11:24:23;;;;;;;0.95;0.50;;;15.90;73.00;;;;;;5106790;28;20059;-36
2021/10/18 11:26:53;;;;;;;1.35;0.52;;;15.90;73.10;;;;;;5105320;28;20082;-36
2021/10/18 11:29:28;;;;;;;0.93;0.60;;;15.90;73.10;;;;;;5105439;28;20091;-36
2021/10/18 11:31:54;;;;;;;0.60;0.52;;;15.90;73.00;;;;;;5106621;28;20031;-36
2021/10/18 11:34:20;;;;;;;0.68;0.40;;;15.80;73.00;;;;;;5106791;28;20107;-36
2021/10/18 11:36:48;;;;;;;0.50;0.47;;;15.80;73.10;;;;;;5106131;28;20024;-37
2021/10/18 11:39:25;;;;;;;0.80;0.50;;;15.80;73.10;;;;;;5105053;28;20020;-36
2021/10/18 11:42:13;;;;;;;0.85;0.50;;;15.80;73.00;;;;;;5106559;28;20024;-36
2021/10/18 11:44:53;;;;;;;0.55;0.50;;;15.80;73.10;;;;;;5106508;28;20020;-36
2021/10/18 11:47:33;;;;;;;0.60;0.60;;;15.80;73.20;;;;;;5104833;28;20028;-37
2021/10/18 11:50:25;;;;;;;0.40;0.40;;;15.80;73.20;;;;;;5106347;28;20054;-36
2021/10/18 11:52:52;;;;;;;0.60;0.40;;;15.80;73.20;;;;;;5097244;28;20050;-36
2021/10/18 11:55:23;;;;;;;0.73;0.55;;;15.70;73.10;;;;;;5106219;28;20480;-37
2021/10/18 11:57:50;;;;;;;0.50;0.43;;;15.70;73.20;;;;;;5106065;28;20028;-36
2021/10/18 12:00:20;;;;;;;0.50;0.50;;;15.70;73.20;;;;;;5106002;28;20025;-37
2021/10/18 12:02:46;;;;;;;0.77;0.50;;;15.70;73.20;;;;;;5106089;28;20039;-36
2021/10/18 12:05:13;;;;;;;0.60;0.40;;;15.70;73.20;;;;;;5105867;28;20552;-36
2021/10/18 12:07:40;;;;;;;0.85;0.60;;;15.70;73.30;;;;;;5105395;28;20067;-37
2021/10/18 12:10:13;;;;;;;0.85;0.55;;;15.70;73.30;;;;;;5106137;28;20465;-36
2021/10/18 12:12:39;;;;;;;0.60;0.50;;;15.70;73.40;;;;;;5106058;28;20027;-36
2021/10/18 12:15:07;;;;;;;0.80;0.40;;;15.70;73.30;;;;;;5105759;28;20031;-36
2021/10/18 12:17:34;;;;;;;1.15;0.50;;;15.70;73.40;;;;;;5105939;28;20032;-36
2021/10/18 12:20:04;;;;;;;0.32;0.32;;;15.60;73.40;;;;;;5104456;28;20023;-36
2021/10/18 12:22:30;;;;;;;0.47;0.43;;;15.60;73.30;;;;;;5104430;28;20029;-36
2021/10/18 12:25:03;;;;;;;0.82;0.50;;;15.60;73.40;;;;;;5104504;28;20544;-36
2021/10/18 12:27:30;;;;;;;0.65;0.50;;;15.60;73.40;;;;;;5102651;28;20023;-36
2021/10/18 12:29:56;;;;;;;0.80;0.50;;;15.60;73.40;;;;;;5105622;28;20024;-36
2021/10/18 12:32:22;;;;;;;0.45;0.45;;;15.60;73.40;;;;;;5105553;28;20020;-36
2021/10/18 12:34:48;;;;;;;0.70;0.50;;;15.60;73.40;;;;;;5105481;28;20101;-36
2021/10/18 12:37:15;;;;;;;0.55;0.50;;;15.60;73.40;;;;;;5087228;28;20030;-36
2021/10/18 12:39:49;;;;;;;0.88;0.52;;;15.60;73.40;;;;;;5105032;28;20063;-36
2021/10/18 12:42:35;;;;;;;0.98;0.50;;;15.60;73.40;;;;;;5105354;28;20055;-36
2021/10/18 12:45:07;;;;;;;0.80;0.50;;;15.50;73.40;;;;;;5105225;28;20066;-36
2021/10/18 12:47:34;;;;;;;0.88;0.55;;;15.50;73.40;;;;;;5105303;28;20031;-36
2021/10/18 12:50:11;;;;;;;0.70;0.60;;;15.50;73.40;;;;;;5105196;28;20054;-36
2021/10/18 12:53:01;;;;;;;0.50;0.50;;;15.50;73.40;;;;;;5105350;28;20020;-37
2021/10/18 12:55:38;;;;;;;1.15;0.60;;;15.50;73.50;;;;;;5104631;28;20107;-36
2021/10/18 12:58:22;;;;;;;0.60;0.50;;;15.50;73.50;;;;;;5103882;28;20032;-36
2021/10/18 13:00:48;;;;;;;0.55;0.47;;;15.50;73.50;;;;;;5104884;28;20076;-36
2021/10/18 13:03:16;;;;;;;0.80;0.50;;;15.50;73.50;;;;;;5104502;28;20079;-36
2021/10/18 13:05:42;;;;;;;0.52;0.50;;;15.50;73.50;;;;;;5104891;28;20092;-36
2021/10/18 13:08:09;;;;;;;0.57;0.40;;;15.50;73.50;;;;;;5104670;28;20024;-36
2021/10/18 13:10:39;;;;;;;0.70;0.53;;;15.40;73.40;;;;;;5101070;28;20127;-36
2021/10/18 13:13:06;;;;;;;0.43;0.43;;;15.40;73.50;;;;;;5096893;28;20036;-36
2021/10/18 13:15:33;;;;;;;0.80;0.40;;;15.40;73.50;;;;;;5104725;28;20032;-36
2021/10/18 13:17:59;;;;;;;0.40;0.40;;;15.40;73.40;;;;;;5103555;28;20043;-36
2021/10/18 13:20:25;;;;;;;0.98;0.55;;;15.40;73.50;;;;;;5104586;28;20024;-36
2021/10/18 13:22:53;;;;;;;0.63;0.50;;;15.40;73.40;;;;;;5104639;28;20028;-36
2021/10/18 13:25:20;;;;;;;0.70;0.60;;;15.40;73.50;;;;;;5104290;28;20028;-36
2021/10/18 13:27:46;;;;;;;1.38;0.57;;;15.40;73.40;;;;;;5103032;28;20052;-36
2021/10/18 13:30:13;;;;;;;1.05;0.60;;;15.40;73.40;;;;;;5104039;28;20032;-36
2021/10/18 13:32:40;;;;;;;2.30;0.40;;;15.40;73.40;;;;;;5104336;28;20031;-36
2021/10/18 13:35:06;;;;;;;0.55;0.50;;;15.40;73.50;;;;;;5104316;28;20035;-37
2021/10/18 13:37:33;;;;;;;1.05;0.52;;;15.30;73.40;;;;;;5103929;28;20055;-36
2021/10/18 13:39:59;;;;;;;1.17;0.73;;;15.30;73.40;;;;;;5103825;28;20043;-36
2021/10/18 13:42:25;;;;;;;0.60;0.50;;;15.30;73.40;;;;;;5104298;28;20095;-36
2021/10/18 13:44:51;;;;;;;0.45;0.45;;;15.30;73.50;;;;;;5104196;28;20103;-36
2021/10/18 13:47:17;;;;;;;1.95;0.60;;;15.30;73.50;;;;;;5103903;28;20025;-37
2021/10/18 13:49:43;;;;;;;0.60;0.40;;;15.30;73.50;;;;;;5104050;28;20044;-37
2021/10/18 13:52:10;;;;;;;0.63;0.55;;;15.30;73.40;;;;;;5102624;28;20476;-36
2021/10/18 13:54:36;;;;;;;0.63;0.50;;;15.40;73.50;;;;;;5103816;28;20025;-36
2021/10/18 13:57:02;;;;;;;0.63;0.50;;;15.30;73.50;;;;;;5103880;28;20020;-36
2021/10/18 13:59:28;;;;;;;0.50;0.40;;;15.30;73.50;;;;;;5103548;28;20773;-36
2021/10/18 14:01:54;;;;;;;0.73;0.50;;;15.30;73.50;;;;;;5103923;28;20054;-36